sensor_id;sensor_type;location;lat;lon;timestamp;pressure;altitude;pressure_sealevel;temperature;humidity
30724;BME280;17473;52.286;20.930;2023-01-23T00:01:30;102047.94;;;1.87;99.89
30724;BME280;17473;52.286;20.930;2023-01-23T00:03:58;102047.78;;;2.13;99.31
30724;BME280;17473;52.286;20.930;2023-01-23T00:06:27;102054.91;;;2.06;99.01
30724;BME280;17473;52.286;20.930;2023-01-23T00:08:55;102053.72;;;1.93;99.35
30724;BME280;17473;52.286;20.930;2023-01-23T00:11:27;102060.53;;;1.82;99.90
30724;BME280;17473;52.286;20.930;2023-01-23T00:13:57;102062.28;;;2.01;100.00
30724;BME280;17473;52.286;20.930;2023-01-23T00:16:27;102057.06;;;2.01;99.77
30724;BME280;17473;52.286;20.930;2023-01-23T00:18:55;102062.97;;;2.17;99.31
30724;BME280;17473;52.286;20.930;2023-01-23T00:21:26;102061.00;;;2.15;99.75
30724;BME280;17473;52.286;20.930;2023-01-23T00:23:56;102065.91;;;2.12;99.14
30724;BME280;17473;52.286;20.930;2023-01-23T00:26:27;102074.97;;;2.07;100.00
30724;BME280;17473;52.286;20.930;2023-01-23T00:28:55;102076.28;;;1.93;100.00
30724;BME280;17473;52.286;20.930;2023-01-23T00:31:28;102078.81;;;2.10;100.00
30724;BME280;17473;52.286;20.930;2023-01-23T00:34:09;102083.56;;;2.06;100.00
30724;BME280;17473;52.286;20.930;2023-01-23T00:36:39;102081.75;;;2.05;100.00
30724;BME280;17473;52.286;20.930;2023-01-23T00:39:19;102076.22;;;2.01;100.00
30724;BME280;17473;52.286;20.930;2023-01-23T00:41:48;102071.56;;;2.16;100.00
30724;BME280;17473;52.286;20.930;2023-01-23T00:44:16;102064.44;;;2.24;100.00
30724;BME280;17473;52.286;20.930;2023-01-23T00:46:44;102069.72;;;2.15;99.63
30724;BME280;17473;52.286;20.930;2023-01-23T00:49:11;102056.47;;;2.23;100.00
30724;BME280;17473;52.286;20.930;2023-01-23T00:51:39;102062.75;;;2.25;99.43
30724;BME280;17473;52.286;20.930;2023-01-23T00:54:06;102065.56;;;2.17;100.00
30724;BME280;17473;52.286;20.930;2023-01-23T00:56:33;102067.44;;;2.10;100.00
30724;BME280;17473;52.286;20.930;2023-01-23T00:59:00;102064.03;;;2.19;100.00
30724;BME280;17473;52.286;20.930;2023-01-23T01:01:28;102067.91;;;2.33;100.00
30724;BME280;17473;52.286;20.930;2023-01-23T01:03:58;102078.50;;;2.07;100.00
30724;BME280;17473;52.286;20.930;2023-01-23T01:06:26;102078.94;;;2.12;100.00
30724;BME280;17473;52.286;20.930;2023-01-23T01:08:53;102079.31;;;2.25;100.00
30724;BME280;17473;52.286;20.930;2023-01-23T01:11:20;102078.81;;;2.10;100.00
30724;BME280;17473;52.286;20.930;2023-01-23T01:13:47;102076.69;;;2.25;100.00
30724;BME280;17473;52.286;20.930;2023-01-23T01:16:14;102080.38;;;2.27;100.00
30724;BME280;17473;52.286;20.930;2023-01-23T01:18:42;102078.94;;;2.12;100.00
30724;BME280;17473;52.286;20.930;2023-01-23T01:21:12;102085.78;;;2.20;100.00
30724;BME280;17473;52.286;20.930;2023-01-23T01:23:40;102086.53;;;2.28;100.00
30724;BME280;17473;52.286;20.930;2023-01-23T01:26:08;102087.00;;;2.24;100.00
30724;BME280;17473;52.286;20.930;2023-01-23T01:28:37;102089.50;;;2.13;100.00
30724;BME280;17473;52.286;20.930;2023-01-23T01:31:13;102099.78;;;2.12;100.00
30724;BME280;17473;52.286;20.930;2023-01-23T01:33:42;102090.69;;;2.17;100.00
30724;BME280;17473;52.286;20.930;2023-01-23T01:36:15;102099.28;;;2.16;100.00
30724;BME280;17473;52.286;20.930;2023-01-23T01:38:43;102099.91;;;2.22;100.00
30724;BME280;17473;52.286;20.930;2023-01-23T01:41:11;102106.72;;;2.02;100.00
30724;BME280;17473;52.286;20.930;2023-01-23T01:43:38;102106.66;;;2.20;100.00
30724;BME280;17473;52.286;20.930;2023-01-23T01:54:55;102107.97;;;2.53;99.13
30724;BME280;17473;52.286;20.930;2023-01-23T01:57:40;102109.03;;;2.36;99.15
30724;BME280;17473;52.286;20.930;2023-01-23T02:00:16;102113.69;;;2.49;99.60
30724;BME280;17473;52.286;20.930;2023-01-23T02:02:58;102112.50;;;2.45;99.26
30724;BME280;17473;52.286;20.930;2023-01-23T02:05:41;102122.63;;;2.42;99.30
30724;BME280;17473;52.286;20.930;2023-01-23T02:08:55;102126.09;;;2.24;100.00
30724;BME280;17473;52.286;20.930;2023-01-23T02:11:24;102128.75;;;2.43;99.71
30724;BME280;17473;52.286;20.930;2023-01-23T02:13:51;102126.09;;;2.52;99.24
30724;BME280;17473;52.286;20.930;2023-01-23T02:16:28;102123.50;;;2.52;99.36
30724;BME280;17473;52.286;20.930;2023-01-23T02:19:01;102127.50;;;2.48;99.59
30724;BME280;17473;52.286;20.930;2023-01-23T02:21:30;102132.41;;;2.54;99.07
30724;BME280;17473;52.286;20.930;2023-01-23T02:24:22;102135.19;;;2.46;99.13
30724;BME280;17473;52.286;20.930;2023-01-23T02:26:51;102134.03;;;2.62;98.86
30724;BME280;17473;52.286;20.930;2023-01-23T02:29:19;102137.06;;;2.66;98.42
30724;BME280;17473;52.286;20.930;2023-01-23T02:31:46;102132.28;;;2.71;98.46
30724;BME280;17473;52.286;20.930;2023-01-23T02:34:15;102127.31;;;2.74;98.46
30724;BME280;17473;52.286;20.930;2023-01-23T02:36:46;102124.44;;;2.71;97.97
30724;BME280;17473;52.286;20.930;2023-01-23T02:39:17;102123.16;;;2.57;98.69
30724;BME280;17473;52.286;20.930;2023-01-23T02:41:48;102124.13;;;2.77;97.67
30724;BME280;17473;52.286;20.930;2023-01-23T02:44:21;102130.44;;;2.70;97.93
30724;BME280;17473;52.286;20.930;2023-01-23T02:46:58;102137.94;;;2.48;98.34
30724;BME280;17473;52.286;20.930;2023-01-23T02:49:25;102127.88;;;2.33;99.40
30724;BME280;17473;52.286;20.930;2023-01-23T02:51:53;102129.34;;;2.49;99.64
30724;BME280;17473;52.286;20.930;2023-01-23T02:54:22;102136.50;;;2.32;99.01
30724;BME280;17473;52.286;20.930;2023-01-23T02:56:50;102141.09;;;2.26;99.94
30724;BME280;17473;52.286;20.930;2023-01-23T02:59:17;102144.22;;;2.22;100.00
30724;BME280;17473;52.286;20.930;2023-01-23T03:02:03;102139.09;;;2.32;100.00
30724;BME280;17473;52.286;20.930;2023-01-23T03:04:31;102144.41;;;2.43;99.19
30724;BME280;17473;52.286;20.930;2023-01-23T03:06:58;102136.03;;;2.56;99.07
30724;BME280;17473;52.286;20.930;2023-01-23T03:09:26;102146.63;;;2.57;98.40
30724;BME280;17473;52.286;20.930;2023-01-23T03:11:53;102136.00;;;2.37;99.64
30724;BME280;17473;52.286;20.930;2023-01-23T03:14:22;102136.78;;;2.35;99.15
30724;BME280;17473;52.286;20.930;2023-01-23T03:16:49;102139.69;;;2.39;99.90
30724;BME280;17473;52.286;20.930;2023-01-23T03:19:22;102146.19;;;2.53;98.99
30724;BME280;17473;52.286;20.930;2023-01-23T03:21:51;102151.78;;;2.38;99.42
30724;BME280;17473;52.286;20.930;2023-01-23T03:24:19;102151.97;;;2.31;99.51
30724;BME280;17473;52.286;20.930;2023-01-23T03:26:48;102145.44;;;2.17;99.86
30724;BME280;17473;52.286;20.930;2023-01-23T03:29:21;102156.56;;;2.06;100.00
30724;BME280;17473;52.286;20.930;2023-01-23T03:32:07;102155.94;;;2.08;100.00
30724;BME280;17473;52.286;20.930;2023-01-23T03:34:34;102154.03;;;2.16;100.00
30724;BME280;17473;52.286;20.930;2023-01-23T03:37:02;102149.06;;;1.91;100.00
30724;BME280;17473;52.286;20.930;2023-01-23T03:39:30;102151.22;;;1.95;100.00
30724;BME280;17473;52.286;20.930;2023-01-23T03:42:16;102159.66;;;1.84;100.00
30724;BME280;17473;52.286;20.930;2023-01-23T03:44:43;102155.53;;;1.86;100.00
30724;BME280;17473;52.286;20.930;2023-01-23T03:47:10;102152.31;;;1.88;100.00
30724;BME280;17473;52.286;20.930;2023-01-23T03:49:37;102165.19;;;1.87;100.00
30724;BME280;17473;52.286;20.930;2023-01-23T03:52:04;102171.81;;;1.83;100.00
30724;BME280;17473;52.286;20.930;2023-01-23T03:54:32;102171.44;;;1.89;100.00
30724;BME280;17473;52.286;20.930;2023-01-23T03:56:59;102169.66;;;1.88;100.00
30724;BME280;17473;52.286;20.930;2023-01-23T03:59:26;102175.44;;;1.94;100.00
30724;BME280;17473;52.286;20.930;2023-01-23T04:01:53;102178.31;;;1.97;100.00
30724;BME280;17473;52.286;20.930;2023-01-23T04:04:20;102176.97;;;1.92;100.00
30724;BME280;17473;52.286;20.930;2023-01-23T04:06:47;102177.72;;;1.91;100.00
30724;BME280;17473;52.286;20.930;2023-01-23T04:09:14;102176.22;;;1.93;100.00
30724;BME280;17473;52.286;20.930;2023-01-23T04:11:41;102178.94;;;1.95;100.00
30724;BME280;17473;52.286;20.930;2023-01-23T04:14:08;102177.41;;;2.06;100.00
30724;BME280;17473;52.286;20.930;2023-01-23T04:16:35;102187.66;;;2.04;100.00
30724;BME280;17473;52.286;20.930;2023-01-23T04:19:02;102181.81;;;2.07;100.00
30724;BME280;17473;52.286;20.930;2023-01-23T04:21:30;102177.22;;;2.04;100.00
30724;BME280;17473;52.286;20.930;2023-01-23T04:23:57;102181.94;;;2.17;100.00
30724;BME280;17473;52.286;20.930;2023-01-23T04:26:24;102181.16;;;2.18;100.00
30724;BME280;17473;52.286;20.930;2023-01-23T04:28:51;102184.97;;;2.30;100.00
30724;BME280;17473;52.286;20.930;2023-01-23T04:31:18;102188.03;;;2.35;100.00
30724;BME280;17473;52.286;20.930;2023-01-23T04:33:45;102181.09;;;2.35;100.00
30724;BME280;17473;52.286;20.930;2023-01-23T04:36:12;102194.22;;;2.18;100.00
30724;BME280;17473;52.286;20.930;2023-01-23T04:38:39;102201.19;;;2.37;100.00
30724;BME280;17473;52.286;20.930;2023-01-23T04:41:07;102197.06;;;2.30;100.00
30724;BME280;17473;52.286;20.930;2023-01-23T04:43:35;102197.25;;;2.23;100.00
30724;BME280;17473;52.286;20.930;2023-01-23T04:46:02;102193.31;;;2.17;100.00
30724;BME280;17473;52.286;20.930;2023-01-23T04:48:29;102190.41;;;2.14;100.00
30724;BME280;17473;52.286;20.930;2023-01-23T04:50:56;102193.44;;;2.19;100.00
30724;BME280;17473;52.286;20.930;2023-01-23T04:53:23;102205.38;;;2.26;100.00
30724;BME280;17473;52.286;20.930;2023-01-23T04:55:50;102205.19;;;2.33;100.00
30724;BME280;17473;52.286;20.930;2023-01-23T04:58:18;102203.41;;;2.51;99.58
30724;BME280;17473;52.286;20.930;2023-01-23T05:00:46;102196.47;;;2.60;99.04
30724;BME280;17473;52.286;20.930;2023-01-23T05:03:14;102201.63;;;2.41;98.98
30724;BME280;17473;52.286;20.930;2023-01-23T05:05:41;102206.28;;;2.35;99.76
30724;BME280;17473;52.286;20.930;2023-01-23T05:08:11;102215.25;;;2.47;99.45
30724;BME280;17473;52.286;20.930;2023-01-23T05:10:38;102206.97;;;2.43;99.18
30724;BME280;17473;52.286;20.930;2023-01-23T05:13:05;102213.84;;;2.23;99.48
30724;BME280;17473;52.286;20.930;2023-01-23T05:15:32;102217.22;;;2.22;99.98
30724;BME280;17473;52.286;20.930;2023-01-23T05:17:59;102211.22;;;2.23;100.00
30724;BME280;17473;52.286;20.930;2023-01-23T05:20:26;102210.28;;;2.31;100.00
30724;BME280;17473;52.286;20.930;2023-01-23T05:22:53;102213.94;;;2.33;99.79
30724;BME280;17473;52.286;20.930;2023-01-23T05:25:26;102212.69;;;2.39;99.59
30724;BME280;17473;52.286;20.930;2023-01-23T05:27:54;102219.88;;;2.41;99.59
30724;BME280;17473;52.286;20.930;2023-01-23T05:30:22;102224.97;;;2.40;99.44
30724;BME280;17473;52.286;20.930;2023-01-23T05:32:50;102216.22;;;2.39;99.38
30724;BME280;17473;52.286;20.930;2023-01-23T05:35:17;102210.66;;;2.45;99.13
30724;BME280;17473;52.286;20.930;2023-01-23T05:37:51;102219.75;;;2.40;99.38
30724;BME280;17473;52.286;20.930;2023-01-23T05:40:19;102230.31;;;2.50;99.11
30724;BME280;17473;52.286;20.930;2023-01-23T05:42:47;102227.47;;;2.29;99.26
30724;BME280;17473;52.286;20.930;2023-01-23T05:45:15;102236.63;;;2.43;99.48
30724;BME280;17473;52.286;20.930;2023-01-23T05:47:43;102228.28;;;2.47;98.89
30724;BME280;17473;52.286;20.930;2023-01-23T05:50:18;102243.28;;;2.59;98.41
30724;BME280;17473;52.286;20.930;2023-01-23T05:52:46;102241.63;;;2.59;98.35
30724;BME280;17473;52.286;20.930;2023-01-23T05:55:13;102238.84;;;2.58;98.26
30724;BME280;17473;52.286;20.930;2023-01-23T05:57:40;102242.06;;;2.64;97.92
30724;BME280;17473;52.286;20.930;2023-01-23T06:00:09;102255.53;;;2.69;97.88
30724;BME280;17473;52.286;20.930;2023-01-23T06:02:37;102255.69;;;2.70;97.46
30724;BME280;17473;52.286;20.930;2023-01-23T06:05:05;102254.84;;;2.80;97.14
30724;BME280;17473;52.286;20.930;2023-01-23T06:07:32;102253.19;;;2.80;96.91
30724;BME280;17473;52.286;20.930;2023-01-23T06:09:59;102267.78;;;2.70;97.17
30724;BME280;17473;52.286;20.930;2023-01-23T06:12:26;102268.16;;;2.64;97.28
30724;BME280;17473;52.286;20.930;2023-01-23T06:14:53;102271.09;;;2.58;97.51
30724;BME280;17473;52.286;20.930;2023-01-23T06:17:20;102273.44;;;2.46;97.67
30724;BME280;17473;52.286;20.930;2023-01-23T06:19:48;102271.41;;;2.44;98.09
30724;BME280;17473;52.286;20.930;2023-01-23T06:22:15;102278.16;;;2.50;98.03
30724;BME280;17473;52.286;20.930;2023-01-23T06:24:42;102285.59;;;2.37;98.49
30724;BME280;17473;52.286;20.930;2023-01-23T06:27:09;102288.06;;;2.27;99.44
30724;BME280;17473;52.286;20.930;2023-01-23T06:29:37;102288.47;;;2.40;98.37
30724;BME280;17473;52.286;20.930;2023-01-23T06:32:04;102301.50;;;2.40;98.93
30724;BME280;17473;52.286;20.930;2023-01-23T06:34:36;102304.69;;;2.55;98.20
30724;BME280;17473;52.286;20.930;2023-01-23T06:37:04;102304.72;;;2.46;98.35
30724;BME280;17473;52.286;20.930;2023-01-23T06:39:31;102311.13;;;2.59;98.32
30724;BME280;17473;52.286;20.930;2023-01-23T06:41:59;102322.50;;;2.59;97.91
30724;BME280;17473;52.286;20.930;2023-01-23T06:44:27;102319.38;;;2.63;97.65
30724;BME280;17473;52.286;20.930;2023-01-23T06:46:54;102327.03;;;2.71;97.68
30724;BME280;17473;52.286;20.930;2023-01-23T06:49:21;102340.00;;;2.52;97.54
30724;BME280;17473;52.286;20.930;2023-01-23T06:51:48;102335.91;;;2.36;99.02
30724;BME280;17473;52.286;20.930;2023-01-23T06:54:15;102342.47;;;2.50;98.31
30724;BME280;17473;52.286;20.930;2023-01-23T06:56:42;102335.28;;;2.39;98.60
30724;BME280;17473;52.286;20.930;2023-01-23T06:59:09;102337.25;;;2.50;98.27
30724;BME280;17473;52.286;20.930;2023-01-23T07:01:36;102338.00;;;2.49;98.22
30724;BME280;17473;52.286;20.930;2023-01-23T07:04:03;102338.59;;;2.55;98.30
30724;BME280;17473;52.286;20.930;2023-01-23T07:06:30;102344.28;;;2.51;98.22
30724;BME280;17473;52.286;20.930;2023-01-23T07:08:57;102335.78;;;2.71;98.26
30724;BME280;17473;52.286;20.930;2023-01-23T07:11:25;102341.28;;;2.74;97.07
30724;BME280;17473;52.286;20.930;2023-01-23T07:13:52;102346.22;;;2.71;97.44
30724;BME280;17473;52.286;20.930;2023-01-23T07:16:20;102346.69;;;2.76;97.29
30724;BME280;17473;52.286;20.930;2023-01-23T07:18:47;102352.34;;;2.72;97.26
30724;BME280;17473;52.286;20.930;2023-01-23T07:21:14;102355.22;;;2.84;97.54
30724;BME280;17473;52.286;20.930;2023-01-23T07:23:41;102350.31;;;2.87;96.72
30724;BME280;17473;52.286;20.930;2023-01-23T07:26:09;102350.16;;;2.85;96.70
30724;BME280;17473;52.286;20.930;2023-01-23T07:28:38;102349.53;;;2.88;96.81
30724;BME280;17473;52.286;20.930;2023-01-23T07:31:05;102358.44;;;2.90;96.77
30724;BME280;17473;52.286;20.930;2023-01-23T07:33:32;102356.41;;;2.96;96.27
30724;BME280;17473;52.286;20.930;2023-01-23T07:35:59;102352.00;;;2.86;96.61
30724;BME280;17473;52.286;20.930;2023-01-23T07:38:26;102362.72;;;2.89;96.36
30724;BME280;17473;52.286;20.930;2023-01-23T07:40:57;102357.03;;;2.93;95.40
30724;BME280;17473;52.286;20.930;2023-01-23T07:43:25;102359.41;;;2.73;96.33
30724;BME280;17473;52.286;20.930;2023-01-23T07:45:53;102361.13;;;2.63;96.85
30724;BME280;17473;52.286;20.930;2023-01-23T07:48:20;102353.94;;;2.52;97.13
30724;BME280;17473;52.286;20.930;2023-01-23T07:50:47;102356.50;;;2.70;97.21
30724;BME280;17473;52.286;20.930;2023-01-23T07:53:14;102357.13;;;2.76;96.88
30724;BME280;17473;52.286;20.930;2023-01-23T07:55:41;102362.47;;;2.86;96.82
30724;BME280;17473;52.286;20.930;2023-01-23T07:58:08;102354.72;;;2.96;96.11
30724;BME280;17473;52.286;20.930;2023-01-23T08:00:35;102365.78;;;2.94;96.09
30724;BME280;17473;52.286;20.930;2023-01-23T08:03:02;102363.91;;;3.02;95.86
30724;BME280;17473;52.286;20.930;2023-01-23T08:05:29;102376.03;;;3.01;96.32
30724;BME280;17473;52.286;20.930;2023-01-23T08:07:56;102370.34;;;3.05;96.29
30724;BME280;17473;52.286;20.930;2023-01-23T08:10:39;102379.25;;;3.07;95.98
30724;BME280;17473;52.286;20.930;2023-01-23T08:13:06;102380.56;;;2.85;96.17
30724;BME280;17473;52.286;20.930;2023-01-23T08:15:35;102375.88;;;3.08;95.29
30724;BME280;17473;52.286;20.930;2023-01-23T08:18:02;102375.13;;;3.01;95.59
30724;BME280;17473;52.286;20.930;2023-01-23T08:20:29;102381.81;;;3.16;95.40
30724;BME280;17473;52.286;20.930;2023-01-23T08:22:56;102381.94;;;2.90;95.61
30724;BME280;17473;52.286;20.930;2023-01-23T08:25:24;102379.84;;;2.68;96.36
30724;BME280;17473;52.286;20.930;2023-01-23T08:27:51;102382.94;;;2.64;96.87
30724;BME280;17473;52.286;20.930;2023-01-23T08:30:18;102391.34;;;2.70;96.84
30724;BME280;17473;52.286;20.930;2023-01-23T08:32:46;102393.88;;;2.96;95.91
30724;BME280;17473;52.286;20.930;2023-01-23T08:35:13;102392.97;;;2.96;95.73
30724;BME280;17473;52.286;20.930;2023-01-23T08:37:40;102398.63;;;2.92;96.01
30724;BME280;17473;52.286;20.930;2023-01-23T08:40:09;102396.78;;;3.00;96.07
30724;BME280;17473;52.286;20.930;2023-01-23T08:42:36;102406.91;;;3.05;96.14
30724;BME280;17473;52.286;20.930;2023-01-23T08:45:03;102408.38;;;3.21;94.88
30724;BME280;17473;52.286;20.930;2023-01-23T08:47:30;102412.44;;;3.08;95.07
30724;BME280;17473;52.286;20.930;2023-01-23T08:50:04;102412.75;;;2.94;95.36
30724;BME280;17473;52.286;20.930;2023-01-23T08:52:31;102417.91;;;3.11;95.13
30724;BME280;17473;52.286;20.930;2023-01-23T08:55:00;102425.41;;;3.26;94.89
30724;BME280;17473;52.286;20.930;2023-01-23T08:57:27;102426.53;;;3.10;94.86
30724;BME280;17473;52.286;20.930;2023-01-23T08:59:55;102426.13;;;2.97;95.28
30724;BME280;17473;52.286;20.930;2023-01-23T09:02:22;102435.94;;;3.36;94.82
30724;BME280;17473;52.286;20.930;2023-01-23T09:04:49;102428.34;;;3.20;94.38
30724;BME280;17473;52.286;20.930;2023-01-23T09:07:16;102421.38;;;2.93;95.39
30724;BME280;17473;52.286;20.930;2023-01-23T09:09:43;102418.66;;;2.74;96.90
30724;BME280;17473;52.286;20.930;2023-01-23T09:12:11;102416.38;;;2.77;96.22
30724;BME280;17473;52.286;20.930;2023-01-23T09:14:40;102406.34;;;2.90;96.24
30724;BME280;17473;52.286;20.930;2023-01-23T09:17:07;102410.91;;;3.02;96.17
30724;BME280;17473;52.286;20.930;2023-01-23T09:19:34;102418.63;;;2.91;95.57
30724;BME280;17473;52.286;20.930;2023-01-23T09:22:01;102413.63;;;3.12;96.18
30724;BME280;17473;52.286;20.930;2023-01-23T09:24:29;102411.59;;;3.18;95.26
30724;BME280;17473;52.286;20.930;2023-01-23T09:26:56;102406.69;;;3.21;95.44
30724;BME280;17473;52.286;20.930;2023-01-23T09:29:23;102410.78;;;3.28;95.41
30724;BME280;17473;52.286;20.930;2023-01-23T09:31:50;102405.88;;;3.31;94.98
30724;BME280;17473;52.286;20.930;2023-01-23T09:34:18;102407.94;;;3.44;94.95
30724;BME280;17473;52.286;20.930;2023-01-23T09:36:45;102400.88;;;3.43;94.47
30724;BME280;17473;52.286;20.930;2023-01-23T09:39:12;102404.19;;;3.32;94.13
30724;BME280;17473;52.286;20.930;2023-01-23T09:41:39;102408.03;;;3.26;94.70
30724;BME280;17473;52.286;20.930;2023-01-23T09:47:17;102394.16;;;3.00;95.05
30724;BME280;17473;52.286;20.930;2023-01-23T09:50:08;102398.06;;;2.86;95.40
30724;BME280;17473;52.286;20.930;2023-01-23T09:52:46;102400.03;;;2.88;95.74
30724;BME280;17473;52.286;20.930;2023-01-23T09:55:37;102391.88;;;3.03;95.60
30724;BME280;17473;52.286;20.930;2023-01-23T09:58:17;102390.59;;;3.17;95.13
30724;BME280;17473;52.286;20.930;2023-01-23T10:00:45;102385.28;;;3.34;94.96
30724;BME280;17473;52.286;20.930;2023-01-23T10:03:14;102398.34;;;3.34;94.98
30724;BME280;17473;52.286;20.930;2023-01-23T10:08:58;102405.19;;;3.06;95.31
30724;BME280;17473;52.286;20.930;2023-01-23T10:21:59;102405.47;;;3.45;93.15
30724;BME280;17473;52.286;20.930;2023-01-23T10:24:51;102400.06;;;3.53;92.75
30724;BME280;17473;52.286;20.930;2023-01-23T10:27:25;102396.25;;;3.49;92.77
30724;BME280;17473;52.286;20.930;2023-01-23T10:30:02;102400.09;;;3.44;92.79
30724;BME280;17473;52.286;20.930;2023-01-23T10:32:41;102400.97;;;3.53;92.59
30724;BME280;17473;52.286;20.930;2023-01-23T10:36:00;102396.75;;;3.64;92.67
30724;BME280;17473;52.286;20.930;2023-01-23T10:38:44;102399.78;;;3.69;92.33
30724;BME280;17473;52.286;20.930;2023-01-23T10:41:14;102401.38;;;3.67;92.04
30724;BME280;17473;52.286;20.930;2023-01-23T10:43:51;102394.41;;;3.76;92.14
30724;BME280;17473;52.286;20.930;2023-01-23T10:46:34;102403.78;;;3.74;91.16
30724;BME280;17473;52.286;20.930;2023-01-23T10:49:04;102398.47;;;3.83;91.29
30724;BME280;17473;52.286;20.930;2023-01-23T10:54:08;102388.22;;;3.95;90.81
30724;BME280;17473;52.286;20.930;2023-01-23T10:59:48;102384.41;;;3.91;89.84
30724;BME280;17473;52.286;20.930;2023-01-23T11:04:55;102387.25;;;3.84;90.58
30724;BME280;17473;52.286;20.930;2023-01-23T11:07:30;102394.81;;;3.81;90.58
30724;BME280;17473;52.286;20.930;2023-01-23T11:10:01;102395.25;;;3.85;90.73
30724;BME280;17473;52.286;20.930;2023-01-23T11:12:34;102391.41;;;3.82;90.74
30724;BME280;17473;52.286;20.930;2023-01-23T11:15:30;102392.00;;;3.88;90.49
30724;BME280;17473;52.286;20.930;2023-01-23T11:17:59;102393.13;;;3.81;90.90
30724;BME280;17473;52.286;20.930;2023-01-23T11:20:37;102394.53;;;3.97;89.93
30724;BME280;17473;52.286;20.930;2023-01-23T11:25:43;102386.84;;;3.98;89.98
30724;BME280;17473;52.286;20.930;2023-01-23T11:31:11;102385.91;;;3.98;89.77
30724;BME280;17473;52.286;20.930;2023-01-23T11:34:04;102390.78;;;4.03;88.92
30724;BME280;17473;52.286;20.930;2023-01-23T11:36:55;102374.81;;;4.00;89.40
30724;BME280;17473;52.286;20.930;2023-01-23T11:39:39;102387.06;;;4.10;88.91
30724;BME280;17473;52.286;20.930;2023-01-23T11:42:12;102376.66;;;4.01;89.20
30724;BME280;17473;52.286;20.930;2023-01-23T11:44:41;102367.13;;;4.02;89.00
30724;BME280;17473;52.286;20.930;2023-01-23T11:53:19;102358.22;;;4.00;89.32
30724;BME280;17473;52.286;20.930;2023-01-23T12:16:21;102368.75;;;4.10;88.67
30724;BME280;17473;52.286;20.930;2023-01-23T12:19:02;102378.06;;;3.98;88.88
30724;BME280;17473;52.286;20.930;2023-01-23T12:27:52;102384.34;;;4.19;88.01
30724;BME280;17473;52.286;20.930;2023-01-23T12:37:02;102384.50;;;4.01;88.40
30724;BME280;17473;52.286;20.930;2023-01-23T12:40:18;102379.03;;;4.08;88.37
30724;BME280;17473;52.286;20.930;2023-01-23T12:45:32;102383.66;;;4.11;87.75
30724;BME280;17473;52.286;20.930;2023-01-23T12:48:16;102375.06;;;4.12;87.32
30724;BME280;17473;52.286;20.930;2023-01-23T12:50:51;102374.66;;;4.18;87.25
30724;BME280;17473;52.286;20.930;2023-01-23T12:53:22;102374.53;;;4.16;87.21
30724;BME280;17473;52.286;20.930;2023-01-23T12:56:28;102390.44;;;4.09;87.34
30724;BME280;17473;52.286;20.930;2023-01-23T12:59:26;102385.44;;;4.02;87.82
30724;BME280;17473;52.286;20.930;2023-01-23T13:02:17;102391.88;;;4.05;87.38
30724;BME280;17473;52.286;20.930;2023-01-23T13:05:27;102399.06;;;4.08;87.13
30724;BME280;17473;52.286;20.930;2023-01-23T13:08:06;102399.78;;;4.16;86.77
30724;BME280;17473;52.286;20.930;2023-01-23T13:11:13;102408.31;;;4.04;87.45
30724;BME280;17473;52.286;20.930;2023-01-23T13:14:12;102410.31;;;4.07;87.48
30724;BME280;17473;52.286;20.930;2023-01-23T13:16:46;102408.41;;;4.15;87.18
30724;BME280;17473;52.286;20.930;2023-01-23T13:19:28;102421.31;;;4.13;86.82
30724;BME280;17473;52.286;20.930;2023-01-23T13:27:54;102423.81;;;4.12;86.34
30724;BME280;17473;52.286;20.930;2023-01-23T13:43:52;102416.09;;;4.13;86.81
30724;BME280;17473;52.286;20.930;2023-01-23T13:46:54;102415.63;;;3.98;86.95
30724;BME280;17473;52.286;20.930;2023-01-23T13:50:05;102420.31;;;4.02;86.62
30724;BME280;17473;52.286;20.930;2023-01-23T13:52:55;102429.38;;;3.87;86.97
30724;BME280;17473;52.286;20.930;2023-01-23T13:55:54;102428.53;;;3.97;86.78
30724;BME280;17473;52.286;20.930;2023-01-23T13:58:54;102424.41;;;3.90;87.10
30724;BME280;17473;52.286;20.930;2023-01-23T14:01:46;102427.28;;;4.02;86.41
30724;BME280;17473;52.286;20.930;2023-01-23T14:05:00;102419.97;;;4.08;85.99
30724;BME280;17473;52.286;20.930;2023-01-23T14:08:05;102428.19;;;4.02;86.39
30724;BME280;17473;52.286;20.930;2023-01-23T14:10:48;102428.72;;;4.08;85.99
30724;BME280;17473;52.286;20.930;2023-01-23T14:13:29;102434.19;;;4.01;86.29
30724;BME280;17473;52.286;20.930;2023-01-23T14:16:12;102436.31;;;4.05;86.15
30724;BME280;17473;52.286;20.930;2023-01-23T14:18:57;102434.34;;;4.03;86.32
30724;BME280;17473;52.286;20.930;2023-01-23T14:21:54;102431.13;;;3.97;86.35
30724;BME280;17473;52.286;20.930;2023-01-23T14:24:43;102438.41;;;3.90;86.74
30724;BME280;17473;52.286;20.930;2023-01-23T14:27:34;102441.81;;;3.89;87.07
30724;BME280;17473;52.286;20.930;2023-01-23T14:30:23;102438.41;;;3.90;86.95
30724;BME280;17473;52.286;20.930;2023-01-23T14:32:53;102446.25;;;3.71;87.54
30724;BME280;17473;52.286;20.930;2023-01-23T14:35:31;102445.72;;;3.48;88.27
30724;BME280;17473;52.286;20.930;2023-01-23T14:38:01;102445.84;;;3.58;88.51
30724;BME280;17473;52.286;20.930;2023-01-23T14:40:31;102442.22;;;3.47;88.55
30724;BME280;17473;52.286;20.930;2023-01-23T14:43:24;102443.97;;;3.66;88.06
30724;BME280;17473;52.286;20.930;2023-01-23T14:46:20;102442.97;;;3.46;88.17
30724;BME280;17473;52.286;20.930;2023-01-23T14:48:53;102440.84;;;3.42;88.64
30724;BME280;17473;52.286;20.930;2023-01-23T14:51:25;102454.34;;;3.47;88.59
30724;BME280;17473;52.286;20.930;2023-01-23T14:54:04;102453.66;;;3.58;88.68
30724;BME280;17473;52.286;20.930;2023-01-23T14:56:38;102450.59;;;3.62;88.35